createdAt,value
2018-08-06T00:00:31.668Z,15.95
2018-08-06T00:02:58.594Z,15.97
2018-08-06T00:05:25.523Z,15.91
2018-08-06T00:07:52.488Z,15.88
2018-08-06T00:10:23.002Z,15.83
2018-08-06T00:12:50.000Z,15.88
2018-08-06T00:15:16.981Z,15.84
2018-08-06T00:17:43.946Z,15.82
2018-08-06T00:20:12.068Z,15.78
2018-08-06T00:22:39.504Z,15.69
2018-08-06T00:25:07.794Z,15.73
2018-08-06T00:27:34.710Z,15.76
2018-08-06T00:30:01.785Z,15.68
2018-08-06T00:32:28.685Z,15.72
2018-08-06T00:34:55.702Z,15.62
2018-08-06T00:37:22.777Z,15.70
2018-08-06T00:39:49.685Z,15.72
2018-08-06T00:42:16.640Z,15.62
2018-08-06T00:44:43.555Z,15.62
2018-08-06T00:47:10.560Z,15.60
2018-08-06T00:49:37.564Z,15.60
2018-08-06T00:52:04.625Z,15.55
2018-08-06T00:54:31.524Z,15.49
2018-08-06T00:56:58.563Z,15.43
2018-08-06T00:59:25.628Z,15.45
2018-08-06T01:01:52.944Z,15.43
2018-08-06T01:04:19.865Z,15.51
2018-08-06T01:06:46.839Z,15.43
2018-08-06T01:09:13.775Z,15.47
2018-08-06T01:11:40.818Z,15.36
2018-08-06T01:14:07.804Z,15.30
2018-08-06T01:16:34.766Z,15.27
2018-08-06T01:19:01.717Z,15.29
2018-08-06T01:21:28.732Z,15.24
2018-08-06T01:23:55.663Z,15.11
2018-08-06T01:26:22.591Z,15.09
2018-08-06T01:28:49.590Z,15.06
2018-08-06T01:31:16.692Z,15.07
2018-08-06T01:33:43.615Z,15.05
2018-08-06T01:36:10.544Z,15.01
2018-08-06T01:38:37.493Z,14.96
2018-08-06T01:41:04.430Z,14.94
2018-08-06T01:43:31.366Z,15.00
2018-08-06T01:45:58.271Z,15.06
2018-08-06T01:48:25.216Z,15.04
2018-08-06T01:50:52.157Z,15.06
2018-08-06T01:53:19.108Z,14.96
2018-08-06T01:55:45.990Z,15.00
2018-08-06T01:58:12.920Z,14.97
2018-08-06T02:00:41.769Z,14.98
2018-08-06T02:03:09.681Z,14.91
2018-08-06T02:05:37.360Z,14.91
2018-08-06T02:08:05.211Z,14.97
2018-08-06T02:10:32.093Z,15.01
2018-08-06T02:12:59.016Z,14.99
2018-08-06T02:15:26.453Z,14.86
2018-08-06T02:17:54.336Z,14.83
2018-08-06T02:20:22.095Z,14.78
2018-08-06T02:22:50.100Z,14.77
2018-08-06T02:25:18.396Z,14.82
2018-08-06T02:27:45.391Z,14.78
2018-08-06T02:30:14.738Z,14.76
2018-08-06T02:32:42.787Z,14.63
2018-08-06T02:35:12.803Z,14.60
2018-08-06T02:37:41.237Z,14.54
2018-08-06T02:40:11.269Z,14.54
2018-08-06T02:42:39.280Z,14.68
2018-08-06T02:45:09.196Z,14.64
2018-08-06T02:47:38.092Z,14.71
2018-08-06T02:50:08.096Z,14.72
2018-08-06T02:52:36.524Z,14.67
2018-08-06T02:55:05.368Z,14.70
2018-08-06T02:57:33.556Z,14.42
2018-08-06T03:00:01.964Z,14.68
2018-08-06T03:02:30.805Z,14.63
2018-08-06T03:04:58.123Z,14.53
2018-08-06T03:07:26.143Z,14.49
2018-08-06T03:09:53.121Z,14.56
2018-08-06T03:12:20.037Z,14.51
2018-08-06T03:14:47.053Z,14.51
2018-08-06T03:17:13.969Z,14.45
2018-08-06T03:19:40.908Z,14.42
2018-08-06T03:22:07.831Z,14.45
2018-08-06T03:24:34.756Z,14.42
2018-08-06T03:27:01.687Z,14.44
2018-08-06T03:29:28.625Z,14.38
2018-08-06T03:31:55.585Z,14.32
2018-08-06T03:34:22.521Z,14.28
2018-08-06T03:36:49.447Z,14.23
2018-08-06T03:39:16.354Z,14.22
2018-08-06T03:41:43.292Z,14.27
2018-08-06T03:44:10.263Z,14.25
2018-08-06T03:46:37.180Z,14.23
2018-08-06T03:49:04.152Z,14.19
2018-08-06T03:51:31.111Z,14.21
2018-08-06T03:53:58.064Z,14.18
2018-08-06T03:56:25.060Z,14.21
2018-08-06T03:58:52.610Z,14.25
2018-08-06T04:01:19.580Z,14.27
2018-08-06T04:03:46.680Z,14.26
2018-08-06T04:06:13.652Z,14.27
2018-08-06T04:08:40.659Z,14.27
2018-08-06T04:11:07.593Z,14.56
2018-08-06T04:13:34.635Z,14.66
2018-08-06T04:16:01.549Z,14.60
2018-08-06T04:18:28.476Z,14.56
2018-08-06T04:20:55.415Z,14.58
2018-08-06T04:23:22.386Z,14.56
2018-08-06T04:25:49.364Z,14.55
2018-08-06T04:28:16.297Z,14.63
2018-08-06T04:30:43.224Z,14.65
2018-08-06T04:33:10.193Z,14.67
2018-08-06T04:35:37.169Z,14.72
2018-08-06T04:38:04.224Z,14.75
2018-08-06T04:40:31.192Z,14.75
2018-08-06T04:42:58.131Z,14.86
2018-08-06T04:45:25.110Z,14.93
2018-08-06T04:47:52.042Z,15.00
2018-08-06T04:50:18.989Z,15.14
2018-08-06T04:52:46.232Z,15.31
2018-08-06T04:55:14.060Z,15.41
2018-08-06T04:57:41.041Z,15.41
2018-08-06T05:00:10.377Z,15.55
2018-08-06T05:02:37.332Z,15.64
2018-08-06T05:05:04.784Z,15.70
2018-08-06T05:07:31.718Z,15.87
2018-08-06T05:09:58.644Z,15.92
2018-08-06T05:12:25.568Z,16.01
2018-08-06T05:14:52.480Z,16.00
2018-08-06T05:17:19.402Z,16.08
2018-08-06T05:19:46.308Z,16.15
2018-08-06T05:22:13.237Z,16.28
2018-08-06T05:24:40.241Z,16.36
2018-08-06T05:27:07.113Z,16.43
2018-08-06T05:29:34.020Z,16.54
2018-08-06T05:32:00.945Z,16.52
2018-08-06T05:34:27.900Z,16.54
2018-08-06T05:36:54.824Z,16.70
2018-08-06T05:39:21.748Z,16.83
2018-08-06T05:41:48.706Z,16.93
2018-08-06T05:44:15.636Z,17.00
2018-08-06T05:46:42.570Z,17.30
2018-08-06T05:49:09.514Z,17.33
2018-08-06T05:51:36.442Z,17.60
2018-08-06T05:54:03.392Z,17.62
2018-08-06T05:56:30.325Z,17.57
2018-08-06T05:58:57.213Z,17.67
2018-08-06T06:01:24.168Z,17.98
2018-08-06T06:03:51.098Z,18.14
2018-08-06T06:06:18.036Z,18.23
2018-08-06T06:08:44.964Z,18.22
2018-08-06T06:11:11.920Z,18.06
2018-08-06T06:13:38.852Z,18.77
2018-08-06T06:16:06.771Z,18.73
2018-08-06T06:18:33.720Z,18.59
2018-08-06T06:21:00.673Z,18.50
2018-08-06T06:23:27.613Z,18.70
2018-08-06T06:25:54.554Z,18.86
2018-08-06T06:28:21.480Z,19.14
2018-08-06T06:30:48.408Z,18.81
2018-08-06T06:33:15.308Z,18.91
2018-08-06T06:35:42.227Z,19.46
2018-08-06T06:38:09.148Z,19.51
2018-08-06T06:40:36.125Z,19.68
2018-08-06T06:43:03.068Z,19.78
2018-08-06T06:45:29.997Z,19.89
2018-08-06T06:47:56.912Z,19.99
2018-08-06T06:50:23.848Z,19.96
2018-08-06T06:52:50.759Z,19.72
2018-08-06T06:55:17.672Z,19.98
2018-08-06T06:57:44.600Z,20.22
2018-08-06T07:00:11.689Z,20.33
2018-08-06T07:02:39.156Z,20.50
2018-08-06T07:05:06.424Z,20.29
2018-08-06T07:07:33.635Z,20.68
2018-08-06T07:10:00.567Z,20.60
2018-08-06T07:12:27.522Z,20.30
2018-08-06T07:14:54.440Z,20.77
2018-08-06T07:17:21.357Z,20.87
2018-08-06T07:19:48.267Z,20.41
2018-08-06T07:22:15.208Z,20.22
2018-08-06T07:24:42.136Z,21.13
2018-08-06T07:27:09.063Z,20.98
2018-08-06T07:29:35.972Z,21.24
2018-08-06T07:32:02.917Z,21.38
2018-08-06T07:34:29.832Z,21.35
2018-08-06T07:36:56.773Z,21.30
2018-08-06T07:39:23.734Z,21.35
2018-08-06T07:41:50.645Z,22.14
2018-08-06T07:44:17.821Z,22.15
2018-08-06T07:46:44.759Z,21.87
2018-08-06T07:49:11.681Z,22.38
2018-08-06T07:51:38.604Z,22.50
2018-08-06T07:54:05.597Z,22.54
2018-08-06T07:56:32.526Z,21.98
2018-08-06T07:58:59.481Z,22.17
2018-08-06T08:01:26.420Z,22.60
2018-08-06T08:03:53.362Z,22.66
2018-08-06T08:06:21.123Z,22.00
2018-08-06T08:08:48.127Z,22.58
2018-08-06T08:11:15.104Z,23.59
2018-08-06T08:13:42.052Z,23.60
2018-08-06T08:16:08.984Z,23.28
2018-08-06T08:18:35.920Z,23.53
2018-08-06T08:21:02.842Z,23.49
2018-08-06T08:23:29.769Z,23.63
2018-08-06T08:25:56.709Z,23.66
2018-08-06T08:28:23.632Z,23.50
2018-08-06T08:30:50.588Z,23.53
2018-08-06T08:33:17.600Z,23.88
2018-08-06T08:35:44.546Z,24.23
2018-08-06T08:38:11.464Z,24.07
2018-08-06T08:40:38.504Z,24.52
2018-08-06T08:43:05.427Z,24.42
2018-08-06T08:45:32.380Z,24.44
2018-08-06T08:47:59.308Z,24.52
2018-08-06T08:50:26.240Z,24.60
2018-08-06T08:52:53.164Z,24.65
2018-08-06T08:55:20.327Z,24.67
2018-08-06T08:57:47.251Z,24.04
2018-08-06T09:03:00.893Z,24.20
2018-08-06T09:05:27.836Z,24.87
2018-08-06T09:07:54.782Z,25.33
2018-08-06T09:10:21.739Z,25.19
2018-08-06T09:12:48.676Z,24.92
2018-08-06T09:15:20.968Z,25.45
2018-08-06T09:17:47.949Z,25.12
2018-08-06T09:20:14.894Z,25.28
2018-08-06T09:22:42.740Z,25.23
2018-08-06T09:25:10.601Z,25.95
2018-08-06T09:27:38.680Z,26.13
2018-08-06T09:30:08.385Z,25.70
2018-08-06T09:32:35.308Z,25.77
2018-08-06T09:35:02.232Z,25.64
2018-08-06T09:37:29.173Z,26.08
2018-08-06T09:39:58.025Z,26.24
2018-08-06T09:42:25.471Z,25.98
2018-08-06T09:44:52.645Z,26.02
2018-08-06T09:47:19.608Z,26.49
2018-08-06T09:49:46.664Z,26.64
2018-08-06T09:52:13.723Z,26.70
2018-08-06T09:54:40.867Z,26.55
2018-08-06T09:57:07.861Z,26.36
2018-08-06T09:59:36.560Z,26.58
2018-08-06T10:02:07.338Z,26.62
2018-08-06T10:04:35.429Z,26.46
2018-08-06T10:07:03.912Z,26.67
2018-08-06T10:09:32.431Z,26.65
2018-08-06T10:12:01.805Z,26.86
2018-08-06T10:14:29.743Z,26.99
2018-08-06T10:16:57.859Z,26.21
2018-08-06T10:19:27.003Z,26.70
2018-08-06T10:21:55.027Z,26.69
2018-08-06T10:24:22.007Z,26.68
2018-08-06T10:26:49.040Z,26.98
2018-08-06T10:29:15.958Z,27.28
2018-08-06T10:31:44.237Z,27.39
2018-08-06T10:34:11.173Z,27.59
2018-08-06T10:36:38.110Z,27.41
2018-08-06T10:39:07.984Z,27.20
2018-08-06T10:41:34.897Z,26.63
2018-08-06T10:44:01.879Z,27.59
2018-08-06T10:46:29.562Z,27.32
2018-08-06T10:48:56.532Z,27.87
2018-08-06T10:51:23.483Z,28.17
2018-08-06T10:53:50.736Z,27.83
2018-08-06T10:56:17.624Z,28.06
2018-08-06T10:58:45.460Z,28.28
2018-08-06T11:01:12.989Z,28.31
2018-08-06T11:03:40.142Z,27.78
2018-08-06T11:06:07.077Z,28.46
2018-08-06T11:08:35.708Z,28.24
2018-08-06T11:11:02.695Z,27.74
2018-08-06T11:13:30.038Z,28.22
2018-08-06T11:15:57.157Z,28.25
2018-08-06T11:18:24.141Z,28.73
2018-08-06T11:20:51.104Z,28.55
2018-08-06T11:23:18.828Z,28.73
2018-08-06T11:25:45.740Z,28.74
2018-08-06T11:28:12.868Z,28.66
2018-08-06T11:30:40.005Z,29.22
2018-08-06T11:33:06.985Z,29.32
2018-08-06T11:35:35.680Z,29.50
2018-08-06T11:38:03.949Z,29.32
2018-08-06T11:40:34.033Z,29.15
2018-08-06T11:43:02.562Z,28.86
2018-08-06T11:45:29.476Z,29.27
2018-08-06T11:47:57.461Z,29.31
2018-08-06T11:50:25.677Z,29.42
2018-08-06T11:52:53.465Z,29.65
2018-08-06T11:55:20.441Z,29.65
2018-08-06T11:57:49.126Z,29.54
2018-08-06T12:00:21.633Z,29.64
2018-08-06T12:02:50.499Z,29.81
2018-08-06T12:05:17.548Z,29.89
2018-08-06T12:07:44.477Z,29.37
2018-08-06T12:10:13.274Z,29.56
2018-08-06T12:12:40.420Z,29.30
2018-08-06T12:15:08.245Z,29.68
2018-08-06T12:17:35.230Z,29.10
2018-08-06T12:20:03.712Z,29.58
2018-08-06T12:22:30.636Z,29.72
2018-08-06T12:24:57.580Z,29.62
2018-08-06T12:27:24.617Z,29.56
2018-08-06T12:29:51.571Z,29.21
2018-08-06T12:32:19.891Z,28.94
2018-08-06T12:34:46.900Z,29.05
2018-08-06T12:37:13.824Z,29.13
2018-08-06T12:39:40.757Z,29.52
2018-08-06T12:42:07.696Z,29.76
2018-08-06T12:44:36.963Z,29.89
2018-08-06T12:47:04.944Z,30.35
2018-08-06T12:49:33.240Z,29.88
2018-08-06T12:52:00.221Z,29.86
2018-08-06T12:54:27.175Z,30.30
2018-08-06T12:56:55.174Z,30.28
2018-08-06T12:59:23.457Z,29.77
2018-08-06T13:01:50.427Z,29.72
2018-08-06T13:04:17.368Z,30.48
2018-08-06T13:06:44.289Z,30.71
2018-08-06T13:09:11.231Z,29.72
2018-08-06T13:11:39.074Z,29.48
2018-08-06T13:14:06.595Z,30.50
2018-08-06T13:16:33.541Z,30.96
2018-08-06T13:19:00.481Z,30.73
2018-08-06T13:21:27.649Z,30.66
2018-08-06T13:23:54.563Z,30.64
2018-08-06T13:26:21.516Z,30.09
2018-08-06T13:28:48.490Z,30.28
2018-08-06T13:31:15.436Z,30.06
2018-08-06T13:33:42.391Z,30.45
2018-08-06T13:36:09.340Z,30.24
2018-08-06T13:38:36.285Z,29.95
2018-08-06T13:41:03.678Z,30.24
2018-08-06T13:43:30.628Z,30.53
2018-08-06T13:48:18.042Z,30.16
2018-08-06T13:50:44.956Z,30.22
2018-08-06T13:53:11.939Z,30.18
2018-08-06T13:55:38.927Z,30.11
2018-08-06T13:58:05.899Z,30.60
2018-08-06T14:00:32.889Z,30.66
2018-08-06T14:02:59.799Z,30.51
2018-08-06T14:05:26.754Z,30.37
2018-08-06T14:07:53.837Z,30.31
2018-08-06T14:10:20.768Z,30.19
2018-08-06T14:12:47.731Z,29.97
2018-08-06T14:15:15.981Z,30.19
2018-08-06T14:17:44.747Z,30.36
2018-08-06T14:20:13.359Z,30.82
2018-08-06T14:22:40.317Z,30.62
2018-08-06T14:25:08.480Z,30.49
2018-08-06T14:27:35.432Z,29.95
2018-08-06T14:30:02.838Z,29.92
2018-08-06T14:32:29.788Z,29.64
2018-08-06T14:34:56.738Z,29.78
2018-08-06T14:37:23.649Z,30.07
2018-08-06T14:39:51.201Z,29.86
2018-08-06T14:42:18.128Z,30.07
2018-08-06T14:44:45.062Z,29.77
2018-08-06T14:47:11.968Z,29.81
2018-08-06T14:49:38.976Z,29.78
2018-08-06T14:52:06.024Z,28.99
2018-08-06T14:54:32.886Z,29.45
2018-08-06T14:56:59.820Z,29.62
2018-08-06T14:59:26.773Z,29.94
2018-08-06T15:01:53.649Z,29.73
2018-08-06T15:04:20.580Z,29.59
2018-08-06T15:06:47.505Z,29.44
2018-08-06T15:09:14.734Z,29.65
2018-08-06T15:11:42.096Z,29.64
2018-08-06T15:14:10.385Z,29.48
2018-08-06T15:16:39.537Z,29.39
2018-08-06T15:19:07.951Z,29.69
2018-08-06T15:21:37.125Z,29.64
2018-08-06T15:24:08.577Z,29.48
2018-08-06T15:26:35.501Z,29.52
2018-08-06T15:29:02.994Z,28.90
2018-08-06T15:31:31.348Z,29.17
2018-08-06T15:33:58.234Z,29.36
2018-08-06T15:36:25.174Z,29.61
2018-08-06T15:38:52.135Z,29.35
2018-08-06T15:41:19.109Z,29.48
2018-08-06T15:43:46.036Z,29.52
2018-08-06T15:46:12.980Z,29.28
2018-08-06T15:48:39.890Z,29.66
2018-08-06T15:51:06.856Z,29.76
2018-08-06T15:53:33.813Z,29.02
2018-08-06T15:56:00.730Z,29.20
2018-08-06T15:58:27.678Z,29.02
2018-08-06T16:00:54.640Z,28.65
2018-08-06T16:03:21.590Z,28.77
2018-08-06T16:05:48.509Z,29.22
2018-08-06T16:08:15.460Z,29.20
2018-08-06T16:10:42.377Z,28.90
2018-08-06T16:13:09.316Z,29.12
2018-08-06T16:15:36.314Z,29.22
2018-08-06T16:18:03.284Z,29.07
2018-08-06T16:20:30.224Z,29.20
2018-08-06T16:22:57.141Z,29.10
2018-08-06T16:25:24.058Z,28.86
2018-08-06T16:27:50.991Z,28.81
2018-08-06T16:30:21.756Z,28.59
2018-08-06T16:32:49.058Z,28.57
2018-08-06T16:35:17.820Z,28.33
2018-08-06T16:37:44.988Z,28.44
2018-08-06T16:40:12.541Z,28.55
2018-08-06T16:42:39.520Z,28.48
2018-08-06T16:45:07.284Z,28.60
2018-08-06T16:47:34.637Z,28.72
2018-08-06T16:50:01.597Z,28.71
2018-08-06T16:52:28.543Z,28.76
2018-08-06T16:54:55.425Z,28.80
2018-08-06T16:57:22.337Z,28.78
2018-08-06T16:59:49.233Z,28.56
2018-08-06T17:02:16.212Z,28.41
2018-08-06T17:04:43.117Z,28.28
2018-08-06T17:07:10.015Z,28.17
2018-08-06T17:09:36.937Z,27.93
2018-08-06T17:12:03.953Z,28.14
2018-08-06T17:14:30.911Z,27.98
2018-08-06T17:16:57.855Z,28.13
2018-08-06T17:19:24.778Z,28.24
2018-08-06T17:21:51.706Z,28.29
2018-08-06T17:24:18.635Z,28.32
2018-08-06T17:26:45.528Z,28.40
2018-08-06T17:29:12.438Z,28.22
2018-08-06T17:31:39.357Z,28.10
2018-08-06T17:34:06.322Z,27.91
2018-08-06T17:36:33.298Z,27.96
2018-08-06T17:39:00.146Z,27.79
2018-08-06T17:41:27.084Z,27.82
2018-08-06T17:43:54.027Z,27.75
2018-08-06T17:46:20.956Z,27.67
2018-08-06T17:48:47.876Z,27.61
2018-08-06T17:51:14.807Z,27.60
2018-08-06T17:53:41.720Z,27.56
2018-08-06T17:56:08.615Z,27.56
2018-08-06T17:58:35.525Z,27.65
2018-08-06T18:01:02.452Z,27.49
2018-08-06T18:03:29.372Z,27.42
2018-08-06T18:05:56.292Z,27.31
2018-08-06T18:08:23.216Z,27.28
2018-08-06T18:10:50.136Z,27.17
2018-08-06T18:13:17.080Z,27.07
2018-08-06T18:15:43.996Z,26.98
2018-08-06T18:18:10.920Z,26.88
2018-08-06T18:20:37.824Z,26.85
2018-08-06T18:23:04.833Z,26.82
2018-08-06T18:25:31.768Z,26.64
2018-08-06T18:27:58.737Z,26.56
2018-08-06T18:30:25.656Z,26.43
2018-08-06T18:32:52.604Z,26.35
2018-08-06T18:35:19.848Z,26.12
2018-08-06T18:37:46.852Z,26.11
2018-08-06T18:40:14.693Z,26.04
2018-08-06T18:42:41.616Z,26.03
2018-08-06T18:45:12.882Z,25.95
2018-08-06T18:47:40.341Z,25.77
2018-08-06T18:50:08.011Z,25.75
2018-08-06T18:52:34.925Z,25.64
2018-08-06T18:55:01.873Z,25.59
2018-08-06T18:57:28.788Z,25.51
2018-08-06T18:59:55.784Z,25.46
2018-08-06T19:02:22.707Z,25.30
2018-08-06T19:04:49.657Z,25.24
2018-08-06T19:07:16.593Z,25.15
2018-08-06T19:09:43.520Z,25.05
2018-08-06T19:12:16.236Z,24.84
2018-08-06T19:14:43.147Z,24.81
2018-08-06T19:17:10.053Z,24.73
2018-08-06T19:19:36.939Z,24.66
2018-08-06T19:22:03.897Z,24.57
2018-08-06T19:24:36.742Z,24.46
2018-08-06T19:27:03.638Z,24.34
2018-08-06T19:29:30.554Z,24.16
2018-08-06T19:31:57.476Z,24.03
2018-08-06T19:34:24.397Z,23.91
2018-08-06T19:36:57.267Z,23.76
2018-08-06T19:39:24.244Z,23.70
2018-08-06T19:41:51.373Z,23.65
2018-08-06T19:44:18.264Z,23.56
2018-08-06T19:46:45.144Z,23.53
2018-08-06T19:49:17.897Z,23.47
2018-08-06T19:51:44.808Z,23.31
2018-08-06T19:54:11.899Z,23.23
2018-08-06T19:56:38.765Z,23.17
2018-08-06T19:59:12.848Z,23.11
2018-08-06T20:01:39.798Z,23.16
2018-08-06T20:04:07.324Z,23.03
2018-08-06T20:06:34.244Z,22.98
2018-08-06T20:09:01.168Z,22.91
2018-08-06T20:11:28.075Z,22.91
2018-08-06T20:13:55.064Z,22.77
2018-08-06T20:16:21.965Z,22.80
2018-08-06T20:18:48.913Z,22.68
2018-08-06T20:21:16.177Z,22.64
2018-08-06T20:23:43.117Z,22.61
2018-08-06T20:26:10.084Z,22.55
2018-08-06T20:28:37.017Z,22.45
2018-08-06T20:31:03.973Z,22.42
2018-08-06T20:33:30.995Z,22.46
2018-08-06T20:35:57.952Z,22.33
2018-08-06T20:38:24.868Z,22.33
2018-08-06T20:40:51.804Z,22.30
2018-08-06T20:43:18.755Z,22.27
2018-08-06T20:45:45.704Z,22.24
2018-08-06T20:48:12.657Z,22.12
2018-08-06T20:50:39.600Z,22.04
2018-08-06T20:53:06.541Z,22.12
2018-08-06T20:55:33.525Z,21.99
2018-08-06T20:58:00.491Z,21.98
2018-08-06T21:00:27.445Z,21.89
2018-08-06T21:02:54.390Z,22.03
2018-08-06T21:05:22.202Z,21.80
2018-08-06T21:07:49.240Z,21.61
2018-08-06T21:10:16.872Z,21.53
2018-08-06T21:12:44.050Z,21.53
2018-08-06T21:15:12.162Z,21.47
2018-08-06T21:17:39.297Z,21.43
2018-08-06T21:20:08.258Z,21.37
2018-08-06T21:22:35.193Z,21.37
2018-08-06T21:25:02.140Z,21.45
2018-08-06T21:27:29.055Z,21.25
2018-08-06T21:29:55.956Z,21.17
2018-08-06T21:32:22.964Z,21.28
2018-08-06T21:34:49.962Z,21.15
2018-08-06T21:37:16.913Z,21.03
2018-08-06T21:39:43.845Z,20.91
2018-08-06T21:42:10.824Z,20.83
2018-08-06T21:44:37.759Z,20.84
2018-08-06T21:47:04.693Z,20.85
2018-08-06T21:49:31.601Z,20.76
2018-08-06T21:51:58.556Z,20.56
2018-08-06T21:54:25.524Z,20.42
2018-08-06T21:56:52.435Z,20.41
2018-08-06T21:59:19.339Z,20.59
2018-08-06T22:01:46.316Z,20.54
2018-08-06T22:04:13.238Z,20.45
2018-08-06T22:06:40.380Z,20.44
2018-08-06T22:09:09.671Z,20.41
2018-08-06T22:11:36.615Z,20.33
2018-08-06T22:14:03.875Z,20.28
2018-08-06T22:16:30.849Z,20.27
2018-08-06T22:18:57.815Z,20.17
2018-08-06T22:21:25.233Z,20.13
2018-08-06T22:23:52.229Z,20.05
2018-08-06T22:26:19.157Z,20.04
2018-08-06T22:28:47.931Z,19.83
2018-08-06T22:31:14.868Z,19.87
2018-08-06T22:33:41.841Z,19.85
2018-08-06T22:36:08.756Z,19.77
2018-08-06T22:38:35.716Z,19.73
2018-08-06T22:41:02.674Z,19.64
2018-08-06T22:43:29.620Z,19.46
2018-08-06T22:45:56.561Z,19.50
2018-08-06T22:48:23.511Z,19.52
2018-08-06T22:50:50.439Z,19.50
2018-08-06T22:53:17.413Z,19.36
2018-08-06T22:55:56.095Z,19.22
2018-08-06T22:58:23.032Z,19.07
2018-08-06T23:00:49.960Z,19.06
2018-08-06T23:03:16.904Z,19.08
2018-08-06T23:05:43.847Z,19.15
2018-08-06T23:08:10.890Z,19.21
2018-08-06T23:10:37.817Z,19.19
2018-08-06T23:13:04.781Z,19.17
2018-08-06T23:15:31.709Z,19.27
2018-08-06T23:17:58.667Z,19.26
2018-08-06T23:20:25.664Z,19.18
2018-08-06T23:22:52.568Z,19.08
2018-08-06T23:25:22.027Z,19.11
2018-08-06T23:27:48.932Z,19.03
2018-08-06T23:30:15.848Z,18.97
2018-08-06T23:32:42.844Z,18.86
2018-08-06T23:35:11.277Z,18.82
2018-08-06T23:37:39.148Z,18.76
2018-08-06T23:40:06.889Z,18.81
2018-08-06T23:42:33.992Z,18.82
2018-08-06T23:45:00.916Z,18.71
2018-08-06T23:47:27.856Z,18.78
2018-08-06T23:49:54.817Z,18.78
2018-08-06T23:52:21.716Z,18.69
2018-08-06T23:54:48.625Z,18.57
2018-08-06T23:57:15.534Z,18.49
2018-08-06T23:59:42.460Z,18.39
